createdAt,value
2023-04-26T00:01:05.631Z,2.58
2023-04-26T00:02:46.990Z,2.58
2023-04-26T00:03:33.202Z,2.56
2023-04-26T00:06:06.520Z,2.03
2023-04-26T00:07:46.953Z,2.03
2023-04-26T00:08:32.919Z,2.34
2023-04-26T00:10:59.305Z,2.48
2023-04-26T00:12:46.953Z,2.48
2023-04-26T00:13:25.867Z,2.40
2023-04-26T00:15:52.298Z,1.17
2023-04-26T00:17:46.972Z,1.17
2023-04-26T00:18:18.906Z,2.06
2023-04-26T00:20:45.347Z,2.31
2023-04-26T00:22:47.080Z,2.31
2023-04-26T00:23:11.995Z,2.34
2023-04-26T00:25:38.632Z,2.26
2023-04-26T00:27:46.962Z,2.26
2023-04-26T00:28:05.082Z,2.19
2023-04-26T00:30:32.099Z,2.11
2023-04-26T00:32:47.058Z,2.11
2023-04-26T00:32:58.497Z,1.89
2023-04-26T00:35:25.029Z,1.97
2023-04-26T00:37:46.978Z,1.97
2023-04-26T00:37:51.359Z,2.02
2023-04-26T00:40:17.857Z,1.94
2023-04-26T00:42:44.251Z,1.32
2023-04-26T00:42:46.987Z,1.32
2023-04-26T00:45:10.668Z,1.84
2023-04-26T00:47:37.629Z,1.88
2023-04-26T00:47:47.040Z,1.88
2023-04-26T00:50:04.718Z,1.84
2023-04-26T00:52:31.794Z,1.89
2023-04-26T00:52:47.005Z,1.89
2023-04-26T00:54:58.307Z,1.81
2023-04-26T00:57:25.984Z,1.64
2023-04-26T00:57:46.954Z,1.64
2023-04-26T00:59:52.451Z,1.50
2023-04-26T01:02:19.031Z,1.42
2023-04-26T01:02:47.065Z,1.42
2023-04-26T01:04:45.693Z,1.78
2023-04-26T01:07:12.195Z,1.79
2023-04-26T01:07:47.001Z,1.79
2023-04-26T01:09:39.238Z,1.78
2023-04-26T01:12:07.514Z,1.72
2023-04-26T01:12:46.990Z,1.72
2023-04-26T01:14:36.728Z,1.69
2023-04-26T01:17:03.832Z,1.65
2023-04-26T01:17:47.046Z,1.65
2023-04-26T01:19:30.338Z,1.60
2023-04-26T01:21:56.693Z,1.31
2023-04-26T01:22:46.968Z,1.31
2023-04-26T01:24:23.118Z,1.47
2023-04-26T01:26:50.083Z,0.66
2023-04-26T01:27:46.975Z,0.66
2023-04-26T01:29:17.925Z,1.42
2023-04-26T01:31:45.113Z,1.40
2023-04-26T01:32:46.953Z,1.40
2023-04-26T01:34:11.958Z,1.01
2023-04-26T01:36:38.532Z,0.83
2023-04-26T01:37:46.976Z,0.83
2023-04-26T01:39:05.150Z,1.26
2023-04-26T01:41:32.730Z,1.21
2023-04-26T01:42:46.971Z,1.21
2023-04-26T01:43:59.153Z,0.56
2023-04-26T01:46:25.884Z,1.17
2023-04-26T01:47:47.032Z,1.17
2023-04-26T01:48:52.637Z,0.62
2023-04-26T01:51:19.099Z,1.07
2023-04-26T01:52:46.983Z,1.07
2023-04-26T01:53:45.557Z,1.03
2023-04-26T01:56:11.963Z,1.01
2023-04-26T01:57:46.952Z,1.01
2023-04-26T01:58:38.314Z,0.55
2023-04-26T02:01:07.469Z,0.94
2023-04-26T02:02:47.001Z,0.94
2023-04-26T02:03:34.080Z,0.61
2023-04-26T02:06:00.593Z,0.89
2023-04-26T02:07:46.981Z,0.89
2023-04-26T02:08:27.088Z,0.87
2023-04-26T02:10:53.645Z,0.27
2023-04-26T02:12:46.957Z,0.27
2023-04-26T02:13:20.056Z,0.83
2023-04-26T02:15:47.458Z,0.85
2023-04-26T02:17:47.085Z,0.85
2023-04-26T02:18:13.983Z,0.79
2023-04-26T02:20:44.770Z,0.12
2023-04-26T02:22:46.973Z,0.12
2023-04-26T02:23:13.867Z,0.34
2023-04-26T02:25:41.816Z,0.15
2023-04-26T02:27:46.970Z,0.15
2023-04-26T02:28:08.257Z,0.70
2023-04-26T02:30:34.650Z,0.31
2023-04-26T02:32:47.023Z,0.31
2023-04-26T02:33:01.078Z,0.61
2023-04-26T02:35:27.564Z,0.54
2023-04-26T02:37:47.005Z,0.54
2023-04-26T02:37:56.450Z,0.09
2023-04-26T02:40:22.961Z,0.43
2023-04-26T02:42:46.968Z,0.43
2023-04-26T02:42:49.622Z,-0.25
2023-04-26T02:45:16.257Z,0.50
2023-04-26T02:47:42.697Z,0.46
2023-04-26T02:47:46.998Z,0.46
2023-04-26T02:50:09.770Z,0.15
2023-04-26T02:52:36.998Z,0.32
2023-04-26T02:52:46.963Z,0.32
2023-04-26T02:55:04.510Z,0.11
2023-04-26T02:57:33.768Z,0.30
2023-04-26T02:57:46.962Z,0.30
2023-04-26T03:00:02.352Z,0.21
2023-04-26T03:02:28.825Z,0.19
2023-04-26T03:02:47.067Z,0.19
2023-04-26T03:04:55.978Z,0.22
2023-04-26T03:07:22.568Z,-0.27
2023-04-26T03:07:46.961Z,-0.27
2023-04-26T03:09:48.951Z,-0.57
2023-04-26T03:12:15.298Z,0.20
2023-04-26T03:12:46.975Z,0.20
2023-04-26T03:14:41.805Z,0.21
2023-04-26T03:17:08.358Z,0.24
2023-04-26T03:17:47.015Z,0.24
2023-04-26T03:19:34.758Z,0.24
2023-04-26T03:22:01.478Z,0.25
2023-04-26T03:22:46.981Z,0.25
2023-04-26T03:24:27.980Z,-0.65
2023-04-26T03:26:54.276Z,0.20
2023-04-26T03:27:46.965Z,0.20
2023-04-26T03:29:20.623Z,-0.66
2023-04-26T03:31:47.049Z,0.10
2023-04-26T03:32:47.054Z,0.10
2023-04-26T03:34:13.401Z,0.17
2023-04-26T03:36:39.882Z,-0.01
2023-04-26T03:37:46.978Z,-0.01
2023-04-26T03:39:06.412Z,-1.24
2023-04-26T03:41:33.526Z,0.14
2023-04-26T03:42:46.968Z,0.14
2023-04-26T03:44:00.000Z,0.12
2023-04-26T03:46:26.440Z,0.06
2023-04-26T03:47:47.009Z,0.06
2023-04-26T03:48:53.034Z,-1.38
2023-04-26T03:51:20.154Z,-0.59
2023-04-26T03:52:47.025Z,-0.59
2023-04-26T03:53:48.653Z,-0.47
2023-04-26T03:56:15.109Z,-0.11
2023-04-26T03:57:47.048Z,-0.11
2023-04-26T03:58:42.057Z,-0.16
2023-04-26T04:01:08.718Z,-0.45
2023-04-26T04:02:47.245Z,-0.45
2023-04-26T04:03:35.824Z,-0.20
2023-04-26T04:06:03.796Z,-0.23
2023-04-26T04:07:47.121Z,-0.23
2023-04-26T04:08:30.560Z,-0.26
2023-04-26T04:10:56.973Z,-0.27
2023-04-26T04:12:47.153Z,-0.27
2023-04-26T04:13:23.584Z,-0.27
2023-04-26T04:15:50.042Z,-0.27
2023-04-26T04:17:47.220Z,-0.27
2023-04-26T04:18:16.905Z,-0.25
2023-04-26T04:20:43.646Z,-0.26
2023-04-26T04:22:47.217Z,-0.26
2023-04-26T04:23:10.789Z,-0.23
2023-04-26T04:25:37.136Z,-0.22
2023-04-26T04:27:47.250Z,-0.22
2023-04-26T04:28:03.609Z,-0.99
2023-04-26T04:30:30.814Z,-0.17
2023-04-26T04:32:47.365Z,-0.17
2023-04-26T04:32:59.267Z,-1.83
2023-04-26T04:35:29.030Z,-0.31
2023-04-26T04:37:47.303Z,-0.31
2023-04-26T04:37:58.615Z,-1.45
2023-04-26T04:40:26.149Z,-0.16
2023-04-26T04:42:47.377Z,-0.16
2023-04-26T04:42:53.385Z,0.09
2023-04-26T04:45:20.179Z,0.16
2023-04-26T04:47:46.607Z,-0.53
2023-04-26T04:47:47.434Z,-0.53
2023-04-26T04:50:14.459Z,0.82
2023-04-26T04:52:41.166Z,1.47
2023-04-26T04:52:47.462Z,1.47
2023-04-26T04:55:07.892Z,1.74
2023-04-26T04:57:34.322Z,2.56
2023-04-26T04:57:47.460Z,2.56
2023-04-26T05:00:08.568Z,3.10
2023-04-26T05:02:35.926Z,2.92
2023-04-26T05:02:47.648Z,2.92
2023-04-26T05:05:04.724Z,3.95
2023-04-26T05:07:34.855Z,4.44
2023-04-26T05:07:47.398Z,4.44
2023-04-26T05:10:01.386Z,4.63
2023-04-26T05:12:27.839Z,4.94
2023-04-26T05:12:47.414Z,4.94
2023-04-26T05:14:55.248Z,4.08
2023-04-26T05:17:21.776Z,5.59
2023-04-26T05:17:47.509Z,5.59
2023-04-26T05:19:48.259Z,5.97
2023-04-26T05:22:18.776Z,3.98
2023-04-26T05:22:47.462Z,3.98
2023-04-26T05:24:47.325Z,6.69
2023-04-26T05:27:14.344Z,6.96
2023-04-26T05:27:47.402Z,6.96
2023-04-26T05:29:41.482Z,6.83
2023-04-26T05:32:07.911Z,7.48
2023-04-26T05:32:47.482Z,7.48
2023-04-26T05:34:34.430Z,7.71
2023-04-26T05:37:01.127Z,7.52
2023-04-26T05:37:47.406Z,7.52
2023-04-26T05:39:27.515Z,7.72
2023-04-26T05:41:53.906Z,7.95
2023-04-26T05:42:47.423Z,7.95
2023-04-26T05:44:20.376Z,7.65
2023-04-26T05:46:47.298Z,7.83
2023-04-26T05:47:47.440Z,7.83
2023-04-26T05:49:13.659Z,7.90
2023-04-26T05:51:40.077Z,7.98
2023-04-26T05:52:47.432Z,7.98
2023-04-26T05:54:06.436Z,7.77
2023-04-26T05:56:32.945Z,6.98
2023-04-26T05:57:47.444Z,6.98
2023-04-26T05:58:59.371Z,5.77
2023-04-26T06:01:25.884Z,6.21
2023-04-26T06:02:47.582Z,6.21
2023-04-26T06:03:54.376Z,6.07
2023-04-26T06:06:22.751Z,6.18
2023-04-26T06:07:47.396Z,6.18
2023-04-26T06:08:49.151Z,5.26
2023-04-26T06:11:15.517Z,5.42
2023-04-26T06:12:47.407Z,5.42
2023-04-26T06:13:41.979Z,5.60
2023-04-26T06:16:09.118Z,5.83
2023-04-26T06:17:47.434Z,5.83
2023-04-26T06:18:35.611Z,6.04
2023-04-26T06:21:02.000Z,5.92
2023-04-26T06:22:47.415Z,5.92
2023-04-26T06:23:28.318Z,5.75
2023-04-26T06:25:54.643Z,5.75
2023-04-26T06:27:47.423Z,5.75
2023-04-26T06:28:23.180Z,6.17
2023-04-26T06:30:49.769Z,6.41
2023-04-26T06:32:47.490Z,6.41
2023-04-26T06:33:16.204Z,6.48
2023-04-26T06:35:43.000Z,6.76
2023-04-26T06:37:47.432Z,6.76
2023-04-26T06:38:09.589Z,6.97
2023-04-26T06:40:37.145Z,5.68
2023-04-26T06:42:47.428Z,5.68
2023-04-26T06:43:03.593Z,7.02
2023-04-26T06:45:30.768Z,6.34
2023-04-26T06:47:47.520Z,6.34
2023-04-26T06:47:57.775Z,7.12
2023-04-26T06:50:24.207Z,7.04
2023-04-26T06:52:47.412Z,7.04
2023-04-26T06:52:51.472Z,7.18
2023-04-26T06:55:18.778Z,7.04
2023-04-26T06:57:45.229Z,6.91
2023-04-26T06:57:47.406Z,6.91
2023-04-26T07:00:12.795Z,6.76
2023-04-26T07:02:39.293Z,6.28
2023-04-26T07:02:47.501Z,6.28
2023-04-26T07:05:06.392Z,6.87
2023-04-26T07:07:32.885Z,6.98
2023-04-26T07:07:47.417Z,6.98
2023-04-26T07:09:59.254Z,7.50
2023-04-26T07:12:25.739Z,7.76
2023-04-26T07:12:47.510Z,7.76
2023-04-26T07:14:52.131Z,7.61
2023-04-26T07:17:18.537Z,7.91
2023-04-26T07:17:47.443Z,7.91
2023-04-26T07:19:44.969Z,7.12
2023-04-26T07:22:11.996Z,7.35
2023-04-26T07:22:47.448Z,7.35
2023-04-26T07:24:38.308Z,7.82
2023-04-26T07:27:04.816Z,7.98
2023-04-26T07:27:47.529Z,7.98
2023-04-26T07:29:31.148Z,7.76
2023-04-26T07:31:59.092Z,7.31
2023-04-26T07:32:47.603Z,7.31
2023-04-26T07:34:25.550Z,8.23
2023-04-26T07:36:52.050Z,7.93
2023-04-26T07:37:47.498Z,7.93
2023-04-26T07:39:18.514Z,7.10
2023-04-26T07:41:44.887Z,6.15
2023-04-26T07:42:47.445Z,6.15
2023-04-26T07:44:11.413Z,6.98
2023-04-26T07:46:37.780Z,8.03
2023-04-26T07:47:47.503Z,8.03
2023-04-26T07:49:04.244Z,7.63
2023-04-26T07:51:31.631Z,6.62
2023-04-26T07:52:47.627Z,6.62
2023-04-26T07:53:58.151Z,8.08
2023-04-26T07:56:24.589Z,6.95
2023-04-26T07:57:47.449Z,6.95
2023-04-26T07:58:51.581Z,6.83
2023-04-26T08:01:17.968Z,6.49
2023-04-26T08:02:47.599Z,6.49
2023-04-26T08:03:44.942Z,7.89
2023-04-26T08:06:11.786Z,8.33
2023-04-26T08:07:47.455Z,8.33
2023-04-26T08:08:44.404Z,8.79
2023-04-26T08:11:11.108Z,8.26
2023-04-26T08:12:47.452Z,8.26
2023-04-26T08:13:37.641Z,8.07
2023-04-26T08:16:04.269Z,8.12
2023-04-26T08:17:47.504Z,8.12
2023-04-26T08:18:30.765Z,7.87
2023-04-26T08:20:57.360Z,8.75
2023-04-26T08:22:47.445Z,8.75
2023-04-26T08:23:23.846Z,9.02
2023-04-26T08:25:50.196Z,7.89
2023-04-26T08:27:47.460Z,7.89
2023-04-26T08:28:16.539Z,8.24
2023-04-26T08:30:43.518Z,8.60
2023-04-26T08:32:47.457Z,8.60
2023-04-26T08:33:10.251Z,8.78
2023-04-26T08:35:36.638Z,8.02
2023-04-26T08:37:47.451Z,8.02
2023-04-26T08:38:03.157Z,8.09
2023-04-26T08:40:29.961Z,8.29
2023-04-26T08:42:47.452Z,8.29
2023-04-26T08:42:56.352Z,9.00
2023-04-26T08:45:23.219Z,8.84
2023-04-26T08:47:47.475Z,8.84
2023-04-26T08:47:51.585Z,8.69
2023-04-26T08:50:23.553Z,9.65
2023-04-26T08:52:47.432Z,9.65
2023-04-26T08:52:51.765Z,10.04
2023-04-26T08:55:20.200Z,10.25
2023-04-26T08:57:49.326Z,10.47
2023-04-26T08:57:49.482Z,10.47
2023-04-26T09:00:19.860Z,10.56
2023-04-26T09:02:51.298Z,10.92
2023-04-26T09:02:51.855Z,10.92
2023-04-26T09:05:26.515Z,9.65
2023-04-26T09:07:47.443Z,9.65
2023-04-26T09:07:57.245Z,9.13
2023-04-26T09:10:24.000Z,9.86
2023-04-26T09:12:47.476Z,9.86
2023-04-26T09:12:55.424Z,9.41
2023-04-26T09:15:23.738Z,9.60
2023-04-26T09:17:47.493Z,9.60
2023-04-26T09:17:51.848Z,9.79
2023-04-26T09:20:26.405Z,9.89
2023-04-26T09:22:47.435Z,9.89
2023-04-26T09:22:55.020Z,10.30
2023-04-26T09:25:29.890Z,9.32
2023-04-26T09:27:47.433Z,9.32
2023-04-26T09:27:57.397Z,10.26
2023-04-26T09:30:24.188Z,9.73
2023-04-26T09:32:47.732Z,9.73
2023-04-26T09:32:53.584Z,9.31
2023-04-26T09:35:25.213Z,9.30
2023-04-26T09:37:57.579Z,9.30
2023-04-26T09:38:10.949Z,8.80
2023-04-26T09:40:41.128Z,9.39
2023-04-26T09:42:47.539Z,9.39
2023-04-26T09:43:10.305Z,9.08
2023-04-26T09:46:03.318Z,8.89
2023-04-26T09:47:47.518Z,8.89
2023-04-26T09:48:34.471Z,9.06
2023-04-26T09:51:06.535Z,10.58
2023-04-26T09:52:47.456Z,10.58
2023-04-26T09:53:38.486Z,10.13
2023-04-26T09:56:18.693Z,10.36
2023-04-26T09:57:47.467Z,10.36
2023-04-26T09:58:52.302Z,10.96
2023-04-26T10:01:19.858Z,10.52
2023-04-26T10:02:47.632Z,10.52
2023-04-26T10:03:47.212Z,10.42
2023-04-26T10:06:14.104Z,10.75
2023-04-26T10:07:47.483Z,10.75
2023-04-26T10:08:40.916Z,10.77
2023-04-26T10:11:07.940Z,11.48
2023-04-26T10:12:47.502Z,11.48
2023-04-26T10:13:35.429Z,11.55
2023-04-26T10:16:04.296Z,11.57
2023-04-26T10:17:48.292Z,11.57
2023-04-26T10:18:31.984Z,11.10
2023-04-26T10:21:15.024Z,9.97
2023-04-26T10:22:47.485Z,9.97
2023-04-26T10:23:41.853Z,9.82
2023-04-26T10:26:47.124Z,10.76
2023-04-26T10:27:47.457Z,10.76
2023-04-26T10:29:13.528Z,10.95
2023-04-26T10:32:09.435Z,10.94
2023-04-26T10:32:47.512Z,10.94
2023-04-26T10:34:38.082Z,10.48
2023-04-26T10:37:11.525Z,10.28
2023-04-26T10:37:47.489Z,10.28
2023-04-26T10:39:39.665Z,9.67
2023-04-26T10:42:28.412Z,10.69
2023-04-26T10:42:47.557Z,10.69
2023-04-26T10:44:59.265Z,9.66
2023-04-26T10:47:32.988Z,9.69
2023-04-26T10:47:47.564Z,9.69
2023-04-26T10:50:10.558Z,9.93
2023-04-26T10:52:39.304Z,9.22
2023-04-26T10:52:47.483Z,9.22
2023-04-26T10:55:06.892Z,10.34
2023-04-26T10:57:51.213Z,10.27
2023-04-26T10:57:51.378Z,10.27
2023-04-26T11:00:25.311Z,10.93
2023-04-26T11:02:48.309Z,10.93
2023-04-26T11:03:06.446Z,10.93
2023-04-26T11:06:00.415Z,10.88
2023-04-26T11:07:47.497Z,10.88
2023-04-26T11:08:29.859Z,11.55
2023-04-26T11:11:05.926Z,11.62
2023-04-26T11:12:47.492Z,11.62
2023-04-26T11:13:33.611Z,11.83
2023-04-26T11:16:05.833Z,11.56
2023-04-26T11:17:47.529Z,11.56
2023-04-26T11:18:33.131Z,11.49
2023-04-26T11:21:00.000Z,11.76
2023-04-26T11:22:47.577Z,11.76
2023-04-26T11:23:28.762Z,10.81
2023-04-26T11:26:05.525Z,11.40
2023-04-26T11:27:47.502Z,11.40
2023-04-26T11:28:34.620Z,10.46
2023-04-26T11:31:02.844Z,11.22
2023-04-26T11:32:47.621Z,11.22
2023-04-26T11:33:29.707Z,11.46
2023-04-26T11:35:57.974Z,11.52
2023-04-26T11:37:47.523Z,11.52
2023-04-26T11:38:25.548Z,10.78
2023-04-26T11:40:59.886Z,10.33
2023-04-26T11:42:47.532Z,10.33
2023-04-26T11:43:39.867Z,10.56
2023-04-26T11:46:08.103Z,10.90
2023-04-26T11:47:47.534Z,10.90
2023-04-26T11:48:36.480Z,11.40
2023-04-26T11:51:04.929Z,12.17
2023-04-26T11:52:47.485Z,12.17
2023-04-26T11:53:42.696Z,11.92
2023-04-26T11:56:20.491Z,11.88
2023-04-26T11:57:47.496Z,11.88
2023-04-26T11:58:48.521Z,12.40
2023-04-26T12:01:23.460Z,11.49
2023-04-26T12:02:47.727Z,11.49
2023-04-26T12:03:55.228Z,13.24
2023-04-26T12:06:43.031Z,12.54
2023-04-26T12:07:47.493Z,12.54
2023-04-26T12:09:11.161Z,12.42
2023-04-26T12:11:38.431Z,11.54
2023-04-26T12:12:47.493Z,11.54
2023-04-26T12:14:05.863Z,11.23
2023-04-26T12:16:32.473Z,11.25
2023-04-26T12:17:47.532Z,11.25
2023-04-26T12:18:58.976Z,10.87
2023-04-26T12:21:28.196Z,12.34
2023-04-26T12:22:47.532Z,12.34
2023-04-26T12:23:56.256Z,11.96
2023-04-26T12:26:22.651Z,12.55
2023-04-26T12:27:47.498Z,12.55
2023-04-26T12:28:49.122Z,11.88
2023-04-26T12:31:15.728Z,11.21
2023-04-26T12:32:47.595Z,11.21
2023-04-26T12:33:42.452Z,11.72
2023-04-26T12:36:10.276Z,12.73
2023-04-26T12:37:47.530Z,12.73
2023-04-26T12:38:37.186Z,12.23
2023-04-26T12:41:04.069Z,11.74
2023-04-26T12:42:47.503Z,11.74
2023-04-26T12:43:30.841Z,10.67
2023-04-26T12:45:57.354Z,10.75
2023-04-26T12:47:47.558Z,10.75
2023-04-26T12:48:23.852Z,10.50
2023-04-26T12:50:51.367Z,10.24
2023-04-26T12:52:47.485Z,10.24
2023-04-26T12:53:18.500Z,12.03
2023-04-26T12:55:45.027Z,12.42
2023-04-26T12:57:47.572Z,12.42
2023-04-26T12:58:11.634Z,11.87
2023-04-26T13:00:38.237Z,12.40
2023-04-26T13:02:47.703Z,12.40
2023-04-26T13:03:04.829Z,12.65
2023-04-26T13:05:32.202Z,12.46
2023-04-26T13:07:47.527Z,12.46
2023-04-26T13:08:00.474Z,12.78
2023-04-26T13:10:27.089Z,13.12
2023-04-26T13:12:47.504Z,13.12
2023-04-26T13:12:53.919Z,12.74
2023-04-26T13:15:21.590Z,12.23
2023-04-26T13:17:48.034Z,11.91
2023-04-26T13:17:48.610Z,11.91
2023-04-26T13:20:14.433Z,11.78
2023-04-26T13:22:42.404Z,12.23
2023-04-26T13:22:47.526Z,12.23
2023-04-26T13:25:10.383Z,12.02
2023-04-26T13:27:36.854Z,11.98
2023-04-26T13:27:47.506Z,11.98
2023-04-26T13:30:06.559Z,11.83
2023-04-26T13:32:32.958Z,12.57
2023-04-26T13:32:47.560Z,12.57
2023-04-26T13:34:59.286Z,13.36
2023-04-26T13:37:26.929Z,13.35
2023-04-26T13:37:47.567Z,13.35
2023-04-26T13:39:54.033Z,13.89
2023-04-26T13:42:20.630Z,12.94
2023-04-26T13:42:47.623Z,12.94
2023-04-26T13:44:47.015Z,14.06
2023-04-26T13:47:13.557Z,13.40
2023-04-26T13:47:47.579Z,13.40
2023-04-26T13:49:44.731Z,12.48
2023-04-26T13:52:11.853Z,12.53
2023-04-26T13:52:47.515Z,12.53
2023-04-26T13:54:40.120Z,12.65
2023-04-26T13:57:06.448Z,12.65
2023-04-26T13:57:47.553Z,12.65
2023-04-26T13:59:32.838Z,13.44
2023-04-26T14:01:59.642Z,13.82
2023-04-26T14:02:47.704Z,13.82
2023-04-26T14:04:26.572Z,13.81
2023-04-26T14:06:53.603Z,12.61
2023-04-26T14:07:47.504Z,12.61
2023-04-26T14:09:20.109Z,12.40
2023-04-26T14:11:51.528Z,13.07
2023-04-26T14:12:47.564Z,13.07
2023-04-26T14:14:20.498Z,12.40
2023-04-26T14:16:46.915Z,12.58
2023-04-26T14:17:47.528Z,12.58
2023-04-26T14:19:15.385Z,12.37
2023-04-26T14:21:42.047Z,12.53
2023-04-26T14:22:47.531Z,12.53
2023-04-26T14:24:08.735Z,12.89
2023-04-26T14:26:35.240Z,12.90
2023-04-26T14:27:47.509Z,12.90
2023-04-26T14:29:02.181Z,12.23
2023-04-26T14:31:30.149Z,12.42
2023-04-26T14:32:47.537Z,12.42
2023-04-26T14:33:56.804Z,13.15
2023-04-26T14:36:23.392Z,13.28
2023-04-26T14:37:47.542Z,13.28
2023-04-26T14:38:49.838Z,12.53
2023-04-26T14:41:17.635Z,13.20
2023-04-26T14:42:47.540Z,13.20
2023-04-26T14:43:46.240Z,13.35
2023-04-26T14:46:15.915Z,12.81
2023-04-26T14:47:47.591Z,12.81
2023-04-26T14:48:44.890Z,12.77
2023-04-26T14:51:11.814Z,12.91
2023-04-26T14:52:47.500Z,12.91
2023-04-26T14:53:39.007Z,12.52
2023-04-26T14:56:07.493Z,12.59
2023-04-26T14:57:47.525Z,12.59
2023-04-26T14:58:36.209Z,12.00
2023-04-26T15:01:02.831Z,11.70
2023-04-26T15:02:47.714Z,11.70
2023-04-26T15:03:29.742Z,12.01
2023-04-26T15:05:56.436Z,12.17
2023-04-26T15:07:47.535Z,12.17
2023-04-26T15:08:22.884Z,12.56
2023-04-26T15:10:49.203Z,12.66
2023-04-26T15:12:47.514Z,12.66
2023-04-26T15:13:16.012Z,12.52
2023-04-26T15:15:42.540Z,12.78
2023-04-26T15:17:47.539Z,12.78
2023-04-26T15:18:08.888Z,12.98
2023-04-26T15:20:42.357Z,12.31
2023-04-26T15:22:47.509Z,12.31
2023-04-26T15:23:08.812Z,12.24
2023-04-26T15:25:36.997Z,11.78
2023-04-26T15:27:47.516Z,11.78
2023-04-26T15:28:03.910Z,12.07
2023-04-26T15:30:30.583Z,12.23
2023-04-26T15:32:47.563Z,12.23
2023-04-26T15:32:57.209Z,12.37
2023-04-26T15:35:24.821Z,12.29
2023-04-26T15:37:47.587Z,12.29
2023-04-26T15:37:54.146Z,12.55
2023-04-26T15:40:24.546Z,12.78
2023-04-26T15:42:47.497Z,12.78
2023-04-26T15:42:51.949Z,11.93
2023-04-26T15:45:18.881Z,12.08
2023-04-26T15:47:45.991Z,12.45
2023-04-26T15:47:47.611Z,12.45
2023-04-26T15:50:12.792Z,12.75
2023-04-26T15:52:39.734Z,12.33
2023-04-26T15:52:47.554Z,12.33
2023-04-26T15:55:09.823Z,12.37
2023-04-26T15:57:36.779Z,12.22
2023-04-26T15:57:47.669Z,12.22
2023-04-26T16:00:04.752Z,12.17
2023-04-26T16:02:31.309Z,11.97
2023-04-26T16:02:47.773Z,11.97
2023-04-26T16:04:57.848Z,11.78
2023-04-26T16:07:26.603Z,12.23
2023-04-26T16:07:47.599Z,12.23
2023-04-26T16:09:53.211Z,12.50
2023-04-26T16:12:19.818Z,12.71
2023-04-26T16:12:47.572Z,12.71
2023-04-26T16:14:46.332Z,12.41
2023-04-26T16:17:12.770Z,12.39
2023-04-26T16:17:47.707Z,12.39
2023-04-26T16:19:40.257Z,11.80
2023-04-26T16:22:06.580Z,12.10
2023-04-26T16:22:47.607Z,12.10
2023-04-26T16:24:33.137Z,11.91
2023-04-26T16:26:59.496Z,12.08
2023-04-26T16:27:47.579Z,12.08
2023-04-26T16:29:26.015Z,11.97
2023-04-26T16:31:52.938Z,11.75
2023-04-26T16:32:47.642Z,11.75
2023-04-26T16:34:20.050Z,11.82
2023-04-26T16:36:46.762Z,11.93
2023-04-26T16:37:47.597Z,11.93
2023-04-26T16:39:15.631Z,11.38
2023-04-26T16:41:42.513Z,11.42
2023-04-26T16:42:47.608Z,11.42
2023-04-26T16:44:08.846Z,10.81
2023-04-26T16:46:35.268Z,11.07
2023-04-26T16:47:47.609Z,11.07
2023-04-26T16:49:01.766Z,11.28
2023-04-26T16:51:28.419Z,11.24
2023-04-26T16:52:47.599Z,11.24
2023-04-26T16:53:54.842Z,11.33
2023-04-26T16:56:22.191Z,11.42
2023-04-26T16:57:47.614Z,11.42
2023-04-26T16:58:48.606Z,11.23
2023-04-26T17:01:17.225Z,10.84
2023-04-26T17:02:47.728Z,10.84
2023-04-26T17:03:43.794Z,10.85
2023-04-26T17:06:10.741Z,10.77
2023-04-26T17:07:47.620Z,10.77
2023-04-26T17:08:37.088Z,10.69
2023-04-26T17:11:03.490Z,10.59
2023-04-26T17:12:47.612Z,10.59
2023-04-26T17:13:32.564Z,10.61
2023-04-26T17:15:59.395Z,10.65
2023-04-26T17:17:47.599Z,10.65
2023-04-26T17:18:25.913Z,10.36
2023-04-26T17:20:53.718Z,10.71
2023-04-26T17:22:47.585Z,10.71
2023-04-26T17:23:20.502Z,10.15
2023-04-26T17:25:47.236Z,10.63
2023-04-26T17:27:47.578Z,10.63
2023-04-26T17:28:14.483Z,10.48
2023-04-26T17:30:40.960Z,10.24
2023-04-26T17:32:47.639Z,10.24
2023-04-26T17:33:07.553Z,9.85
2023-04-26T17:35:34.137Z,9.89
2023-04-26T17:37:47.645Z,9.89
2023-04-26T17:38:00.747Z,10.31
2023-04-26T17:40:27.100Z,10.20
2023-04-26T17:42:47.677Z,10.20
2023-04-26T17:42:53.545Z,10.19
2023-04-26T17:45:19.882Z,10.13
2023-04-26T17:47:46.341Z,10.02
2023-04-26T17:47:47.656Z,10.02
2023-04-26T17:50:13.274Z,9.38
2023-04-26T17:52:39.666Z,9.82
2023-04-26T17:52:47.604Z,9.82
2023-04-26T17:55:08.255Z,9.27
2023-04-26T17:57:34.643Z,8.38
2023-04-26T17:57:47.623Z,8.38
2023-04-26T18:00:01.466Z,9.67
2023-04-26T18:02:28.258Z,9.26
2023-04-26T18:02:47.789Z,9.26
2023-04-26T18:04:56.700Z,9.70
2023-04-26T18:07:23.755Z,9.19
2023-04-26T18:07:47.615Z,9.19
2023-04-26T18:09:50.213Z,9.41
2023-04-26T18:12:16.721Z,9.03
2023-04-26T18:12:47.592Z,9.03
2023-04-26T18:14:45.862Z,8.84
2023-04-26T18:17:12.987Z,9.26
2023-04-26T18:17:47.823Z,9.26
2023-04-26T18:19:39.635Z,9.18
2023-04-26T18:22:07.197Z,9.09
2023-04-26T18:22:47.624Z,9.09
2023-04-26T18:24:34.903Z,9.06
2023-04-26T18:27:02.528Z,8.75
2023-04-26T18:27:47.617Z,8.75
2023-04-26T18:29:29.953Z,8.99
2023-04-26T18:31:56.548Z,8.59
2023-04-26T18:32:47.659Z,8.59
2023-04-26T18:34:23.031Z,8.60
2023-04-26T18:36:49.648Z,8.37
2023-04-26T18:37:47.640Z,8.37
2023-04-26T18:39:16.047Z,8.89
2023-04-26T18:41:42.394Z,8.73
2023-04-26T18:42:47.609Z,8.73
2023-04-26T18:44:13.193Z,8.55
2023-04-26T18:46:40.989Z,8.47
2023-04-26T18:47:47.642Z,8.47
2023-04-26T18:49:07.646Z,8.33
2023-04-26T18:51:34.677Z,8.63
2023-04-26T18:52:47.627Z,8.63
2023-04-26T18:54:01.749Z,8.62
2023-04-26T18:56:29.038Z,8.56
2023-04-26T18:57:47.622Z,8.56
2023-04-26T18:58:56.032Z,8.50
2023-04-26T19:01:22.637Z,8.46
2023-04-26T19:02:47.730Z,8.46
2023-04-26T19:03:49.464Z,8.45
2023-04-26T19:06:16.268Z,8.41
2023-04-26T19:07:47.610Z,8.41
2023-04-26T19:08:43.277Z,8.39
2023-04-26T19:11:13.241Z,8.28
2023-04-26T19:12:47.606Z,8.28
2023-04-26T19:13:41.329Z,8.34
2023-04-26T19:16:09.075Z,8.24
2023-04-26T19:17:49.416Z,8.24
2023-04-26T19:18:36.993Z,8.20
2023-04-26T19:21:07.550Z,8.23
2023-04-26T19:22:47.632Z,8.23
2023-04-26T19:23:34.907Z,8.23
2023-04-26T19:26:03.967Z,8.23
2023-04-26T19:27:47.640Z,8.23
2023-04-26T19:28:30.942Z,7.70
2023-04-26T19:30:57.650Z,8.15
2023-04-26T19:32:47.675Z,8.15
2023-04-26T19:33:24.345Z,8.22
2023-04-26T19:35:50.989Z,8.15
2023-04-26T19:37:47.711Z,8.15
2023-04-26T19:38:17.399Z,7.72
2023-04-26T19:40:44.413Z,8.19
2023-04-26T19:42:47.637Z,8.19
2023-04-26T19:43:10.993Z,7.53
2023-04-26T19:45:39.261Z,8.10
2023-04-26T19:47:47.701Z,8.10
2023-04-26T19:48:05.838Z,7.86
2023-04-26T19:50:32.273Z,7.34
2023-04-26T19:52:47.643Z,7.34
2023-04-26T19:52:58.618Z,7.94
2023-04-26T19:55:26.674Z,7.95
2023-04-26T19:57:47.655Z,7.95
2023-04-26T19:57:54.636Z,7.65
2023-04-26T20:00:21.075Z,7.64
2023-04-26T20:02:47.748Z,7.94
2023-04-26T20:02:48.322Z,7.94
2023-04-26T20:05:14.413Z,7.93
2023-04-26T20:07:41.245Z,7.92
2023-04-26T20:07:47.614Z,7.92
2023-04-26T20:10:08.409Z,7.88
2023-04-26T20:12:34.923Z,7.76
2023-04-26T20:12:47.627Z,7.76
2023-04-26T20:15:01.641Z,7.12
2023-04-26T20:17:28.050Z,7.27
2023-04-26T20:17:47.677Z,7.27
2023-04-26T20:19:54.512Z,6.46
2023-04-26T20:22:20.930Z,7.89
2023-04-26T20:22:47.638Z,7.89
2023-04-26T20:24:47.280Z,7.42
2023-04-26T20:27:13.740Z,7.88
2023-04-26T20:27:47.634Z,7.88
2023-04-26T20:29:40.224Z,7.88
2023-04-26T20:32:06.829Z,7.87
2023-04-26T20:32:47.671Z,7.87
2023-04-26T20:34:33.466Z,7.88
2023-04-26T20:37:00.250Z,7.33
2023-04-26T20:37:47.638Z,7.33
2023-04-26T20:39:28.192Z,7.75
2023-04-26T20:41:56.974Z,7.86
2023-04-26T20:42:47.625Z,7.86
2023-04-26T20:44:23.264Z,7.40
2023-04-26T20:46:49.640Z,7.75
2023-04-26T20:47:47.678Z,7.75
2023-04-26T20:49:16.124Z,7.81
2023-04-26T20:51:42.537Z,7.76
2023-04-26T20:52:47.630Z,7.76
2023-04-26T20:54:09.490Z,7.66
2023-04-26T20:56:35.953Z,7.50
2023-04-26T20:57:47.713Z,7.50
2023-04-26T20:59:02.486Z,7.61
2023-04-26T21:01:28.861Z,7.45
2023-04-26T21:02:47.858Z,7.45
2023-04-26T21:03:55.355Z,7.49
2023-04-26T21:06:22.052Z,7.11
2023-04-26T21:07:47.634Z,7.11
2023-04-26T21:08:48.680Z,7.30
2023-04-26T21:11:15.031Z,7.41
2023-04-26T21:12:47.704Z,7.41
2023-04-26T21:13:41.446Z,7.08
2023-04-26T21:16:08.474Z,6.79
2023-04-26T21:17:47.710Z,6.79
2023-04-26T21:18:34.947Z,7.45
2023-04-26T21:21:01.415Z,7.36
2023-04-26T21:22:47.636Z,7.36
2023-04-26T21:23:27.780Z,6.87
2023-04-26T21:25:54.167Z,6.73
2023-04-26T21:27:47.660Z,6.73
2023-04-26T21:28:20.838Z,7.30
2023-04-26T21:30:47.222Z,7.23
2023-04-26T21:32:47.682Z,7.23
2023-04-26T21:33:15.830Z,7.26
2023-04-26T21:35:42.606Z,6.53
2023-04-26T21:37:47.647Z,6.53
2023-04-26T21:38:09.039Z,6.05
2023-04-26T21:40:35.460Z,7.20